Time;durP1;ratioP1;P1;durP2;ratioP2;P2;SDS_P1;SDS_P2;PMS_P1;PMS_P2;Temp;Humidity;BMP_temperature;BMP_pressure;BME280_temperature;BME280_humidity;BME280_pressure;Samples;Min_cycle;Max_cycle;Signal;HPM_P1;HPM_P2
2021/09/29 00:00:03;;;;;;;357.53;334.43;;;13.20;1.00;;;;;;5055305;28;20454;-82
2021/09/29 00:02:28;;;;;;;344.93;322.30;;;13.10;1.00;;;;;;5055258;28;20464;-83
2021/09/29 00:04:54;;;;;;;490.83;459.83;;;13.10;1.00;;;;;;5055379;28;20400;-82
2021/09/29 00:07:19;;;;;;;428.63;401.67;;;13.20;1.00;;;;;;5055529;28;20188;-84
2021/09/29 00:09:45;;;;;;;419.33;393.53;;;13.20;1.00;;;;;;5038120;28;20168;-82
2021/09/29 00:12:14;;;;;;;291.80;271.70;;;13.20;1.00;;;;;;5038171;28;20573;-83
2021/09/29 00:14:40;;;;;;;311.17;290.10;;;13.20;1.00;;;;;;5037641;28;20279;-82
2021/09/29 00:17:05;;;;;;;365.50;341.57;;;13.10;1.00;;;;;;5055066;28;20969;-82
2021/09/29 00:19:31;;;;;;;391.07;365.33;;;13.20;1.00;;;;;;5036758;28;20168;-83
2021/09/29 00:21:57;;;;;;;315.57;294.07;;;13.20;1.00;;;;;;5054987;28;20259;-82
2021/09/29 00:24:22;;;;;;;269.93;251.47;;;13.30;1.00;;;;;;5054805;28;20647;-82
2021/09/29 00:26:48;;;;;;;255.40;237.03;;;13.10;1.00;;;;;;5037501;28;20195;-82
2021/09/29 00:29:13;;;;;;;313.57;291.93;;;13.00;1.00;;;;;;5037111;28;20165;-82
2021/09/29 00:31:40;;;;;;;370.40;346.87;;;12.90;1.00;;;;;;5055820;28;20172;-82
2021/09/29 00:34:09;;;;;;;389.70;365.83;;;12.90;1.00;;;;;;5037513;28;20174;-82
2021/09/29 00:36:38;;;;;;;382.43;357.83;;;12.90;99.90;;;;;;5054850;28;20910;-82
2021/09/29 00:39:05;;;;;;;458.17;429.70;;;12.80;99.90;;;;;;5036877;28;20415;-81
2021/09/29 00:41:31;;;;;;;410.10;384.13;;;12.80;99.90;;;;;;5055410;28;20857;-82
2021/09/29 00:43:57;;;;;;;489.20;459.30;;;12.80;99.90;;;;;;5056190;28;20407;-81
2021/09/29 00:46:22;;;;;;;492.00;461.47;;;12.80;99.90;;;;;;5062231;28;20494;-83
2021/09/29 00:48:48;;;;;;;385.77;362.00;;;12.80;99.90;;;;;;5062825;28;20402;-84
2021/09/29 00:51:14;;;;;;;466.97;437.77;;;12.70;99.90;;;;;;5062085;28;20403;-84
2021/09/29 00:53:40;;;;;;;441.63;414.83;;;12.80;99.90;;;;;;5062377;28;20193;-82
2021/09/29 00:56:14;;;;;;;421.63;395.27;;;12.70;99.90;;;;;;5131990;22;20223;-85
2021/09/29 00:58:39;;;;;;;387.25;362.58;;;12.70;99.90;;;;;;5063146;28;20411;-85
2021/09/29 01:01:31;;;;;;;443.50;416.60;;;12.70;99.90;;;;;;5045120;28;20195;-84
2021/09/29 01:04:16;;;;;;;455.30;427.77;;;12.60;99.90;;;;;;5015003;28;20177;-84
2021/09/29 01:07:06;;;;;;;462.53;433.53;;;12.60;99.90;;;;;;5063398;28;20418;-85
2021/09/29 01:10:05;;;;;;;502.77;471.20;;;12.50;99.90;;;;;;5062124;28;20442;-84
2021/09/29 01:12:36;;;;;;;496.80;465.70;;;12.50;99.90;;;;;;5044706;28;20410;-84
2021/09/29 01:15:13;;;;;;;532.27;500.40;;;12.40;99.90;;;;;;5044669;28;20418;-85
2021/09/29 01:17:55;;;;;;;524.87;493.67;;;12.50;99.90;;;;;;5044833;28;20430;-84
2021/09/29 01:20:34;;;;;;;534.07;501.17;;;12.50;99.90;;;;;;5045415;28;20446;-84
2021/09/29 01:23:09;;;;;;;490.00;459.93;;;12.50;99.90;;;;;;5063241;28;20409;-84
2021/09/29 01:26:18;;;;;;;446.37;417.87;;;12.50;99.90;;;;;;5064247;28;20407;-84
2021/09/29 01:29:00;;;;;;;422.40;395.90;;;12.60;99.90;;;;;;5063201;28;20375;-84
2021/09/29 01:31:34;;;;;;;378.63;355.23;;;12.50;99.90;;;;;;5046118;28;20494;-84
2021/09/29 01:34:00;;;;;;;427.47;400.13;;;12.50;99.90;;;;;;5063539;28;20387;-84
2021/09/29 01:36:32;;;;;;;377.87;353.97;;;12.40;99.90;;;;;;5063263;28;20482;-84
2021/09/29 01:39:04;;;;;;;427.67;401.23;;;12.40;99.90;;;;;;5045733;28;20434;-84
2021/09/29 01:41:36;;;;;;;423.90;397.63;;;12.30;99.90;;;;;;5062976;28;20418;-84
2021/09/29 01:44:08;;;;;;;449.23;421.43;;;12.40;99.90;;;;;;5063147;28;20375;-85
2021/09/29 01:46:38;;;;;;;481.13;452.03;;;12.40;99.90;;;;;;5063723;28;20421;-85
2021/09/29 01:49:40;;;;;;;446.97;419.90;;;12.40;99.90;;;;;;5045670;28;20399;-84
2021/09/29 01:52:23;;;;;;;385.13;360.87;;;12.40;99.90;;;;;;5063308;28;20387;-84
2021/09/29 01:54:51;;;;;;;306.27;286.20;;;12.50;99.90;;;;;;5045463;28;20809;-84
2021/09/29 01:57:24;;;;;;;289.50;269.37;;;12.60;99.90;;;;;;5059661;28;20581;-84
2021/09/29 01:59:56;;;;;;;250.57;232.57;;;12.60;99.90;;;;;;5041965;28;20403;-84
2021/09/29 02:02:25;;;;;;;272.50;253.87;;;12.60;99.90;;;;;;5059780;28;20403;-84
2021/09/29 02:04:56;;;;;;;321.53;299.90;;;12.60;99.90;;;;;;5060157;28;20466;-84
2021/09/29 02:07:30;;;;;;;370.97;347.13;;;12.40;99.90;;;;;;5060323;28;20506;-84
2021/09/29 02:09:56;;;;;;;322.73;301.93;;;12.40;99.90;;;;;;5042424;28;20418;-84
2021/09/29 02:12:21;;;;;;;292.50;273.43;;;12.40;99.90;;;;;;5060307;28;20391;-84
2021/09/29 02:14:55;;;;;;;315.17;294.67;;;12.40;99.90;;;;;;5060585;28;20456;-84
2021/09/29 02:17:33;;;;;;;363.53;339.90;;;12.40;99.90;;;;;;5059393;28;20238;-85
2021/09/29 02:19:58;;;;;;;225.77;209.10;;;12.50;99.90;;;;;;5042470;28;20427;-85
2021/09/29 02:22:32;;;;;;;378.87;354.50;;;12.40;99.90;;;;;;5059596;28;20415;-85
2021/09/29 02:25:00;;;;;;;401.03;375.67;;;12.40;99.90;;;;;;5058592;28;20713;-85
2021/09/29 02:27:28;;;;;;;399.73;374.03;;;12.30;99.90;;;;;;5059268;28;20836;-85
2021/09/29 02:29:54;;;;;;;356.20;332.77;;;12.40;99.90;;;;;;5058992;28;20456;-85
2021/09/29 02:32:20;;;;;;;352.73;330.27;;;12.30;99.90;;;;;;5059237;28;20902;-84
2021/09/29 02:34:46;;;;;;;332.97;311.10;;;12.40;99.90;;;;;;5058831;28;20173;-85
2021/09/29 02:37:12;;;;;;;335.87;313.40;;;12.40;99.90;;;;;;5058533;28;20431;-84
2021/09/29 02:39:37;;;;;;;326.00;303.80;;;12.50;99.90;;;;;;5058487;28;20164;-84
2021/09/29 02:42:05;;;;;;;313.60;292.70;;;12.50;99.90;;;;;;5040964;28;20618;-85
2021/09/29 02:44:34;;;;;;;283.48;264.02;;;12.60;99.90;;;;;;5058576;28;20165;-84
2021/09/29 02:47:03;;;;;;;219.15;203.13;;;12.60;99.90;;;;;;5059043;28;20230;-85
2021/09/29 02:49:29;;;;;;;222.40;206.35;;;12.60;99.90;;;;;;5058449;28;20161;-85
2021/09/29 02:51:55;;;;;;;198.70;182.90;;;12.60;99.90;;;;;;5058444;28;20164;-85
2021/09/29 02:54:30;;;;;;;184.50;170.40;;;12.50;99.90;;;;;;5058410;28;20403;-84
2021/09/29 02:56:56;;;;;;;236.80;219.67;;;12.40;99.90;;;;;;5058516;28;20449;-85
2021/09/29 02:59:22;;;;;;;244.40;226.70;;;12.40;99.90;;;;;;5058642;28;20403;-85
2021/09/29 03:01:50;;;;;;;288.07;268.83;;;12.30;99.90;;;;;;5058590;28;20192;-84
2021/09/29 03:04:22;;;;;;;374.40;350.10;;;12.30;99.90;;;;;;5058247;28;20422;-85
2021/09/29 03:06:47;;;;;;;303.70;283.10;;;12.40;99.90;;;;;;5058422;28;20419;-84
2021/09/29 03:09:15;;;;;;;250.43;232.33;;;12.40;99.90;;;;;;5058509;28;20171;-85
2021/09/29 03:11:44;;;;;;;348.23;325.83;;;12.20;99.90;;;;;;5040197;28;20195;-85
2021/09/29 03:14:12;;;;;;;387.23;362.67;;;12.30;99.90;;;;;;5058647;28;20406;-84
2021/09/29 03:16:38;;;;;;;342.83;320.90;;;12.20;99.90;;;;;;5058104;28;20480;-85
2021/09/29 03:19:07;;;;;;;395.37;370.97;;;12.20;99.90;;;;;;5040948;28;20172;-84
2021/09/29 03:21:33;;;;;;;426.27;399.83;;;12.10;99.90;;;;;;5058627;28;20200;-85
2021/09/29 03:23:58;;;;;;;434.97;408.63;;;12.10;99.90;;;;;;5058727;28;20628;-84
2021/09/29 03:26:29;;;;;;;506.47;476.50;;;12.00;99.90;;;;;;5058889;28;20574;-84
2021/09/29 03:29:01;;;;;;;476.20;447.73;;;12.00;99.90;;;;;;5042113;28;20160;-85
2021/09/29 03:31:38;;;;;;;444.58;417.42;;;12.10;99.90;;;;;;5059242;28;20183;-85
2021/09/29 03:34:13;;;;;;;390.15;365.02;;;12.10;99.90;;;;;;5040622;28;20166;-85
2021/09/29 03:36:42;;;;;;;448.33;421.00;;;12.10;99.90;;;;;;5058713;28;20233;-84
2021/09/29 03:39:33;;;;;;;419.83;394.20;;;12.10;99.90;;;;;;5040319;28;20164;-85
2021/09/29 03:42:04;;;;;;;388.83;364.52;;;12.10;99.90;;;;;;5058242;28;20207;-84
2021/09/29 03:44:30;;;;;;;452.90;424.40;;;12.00;99.90;;;;;;5058722;28;20222;-84
2021/09/29 03:46:56;;;;;;;404.25;379.00;;;12.10;99.90;;;;;;5041056;28;20204;-85
2021/09/29 03:49:37;;;;;;;397.52;373.55;;;12.10;99.90;;;;;;5058339;28;20168;-85
2021/09/29 03:52:04;;;;;;;422.37;396.47;;;12.10;99.90;;;;;;5041012;28;20180;-85
2021/09/29 03:54:35;;;;;;;388.38;364.15;;;12.00;99.90;;;;;;5041030;28;20771;-85
2021/09/29 03:57:04;;;;;;;399.93;374.63;;;12.00;99.90;;;;;;5058539;28;20199;-85
2021/09/29 03:59:39;;;;;;;447.05;418.90;;;12.00;99.90;;;;;;5058116;28;20774;-85
2021/09/29 04:02:18;;;;;;;458.77;431.00;;;11.90;99.90;;;;;;5041113;28;20650;-85
2021/09/29 04:04:46;;;;;;;518.65;487.17;;;11.90;99.90;;;;;;5057912;28;20410;-85
2021/09/29 04:07:14;;;;;;;526.65;495.52;;;12.00;99.90;;;;;;5057006;28;20212;-85
2021/09/29 04:09:51;;;;;;;504.27;474.42;;;12.00;99.90;;;;;;5057561;28;20244;-85
2021/09/29 04:12:21;;;;;;;510.00;479.90;;;12.00;99.90;;;;;;5057585;28;20167;-85
2021/09/29 04:14:53;;;;;;;530.53;498.90;;;12.00;99.90;;;;;;5056828;28;20446;-85
2021/09/29 04:17:25;;;;;;;482.47;453.53;;;12.10;99.90;;;;;;5056913;28;20437;-85
2021/09/29 04:19:53;;;;;;;448.50;420.98;;;12.10;99.90;;;;;;5038839;28;20423;-85
2021/09/29 04:22:31;;;;;;;329.02;307.92;;;12.20;99.90;;;;;;5057194;28;20230;-85
2021/09/29 04:24:57;;;;;;;248.97;231.33;;;12.20;99.90;;;;;;5039434;28;20168;-85
2021/09/29 04:27:23;;;;;;;365.30;341.27;;;12.10;99.90;;;;;;5039578;28;20450;-85
2021/09/29 04:29:56;;;;;;;406.93;381.10;;;12.10;99.90;;;;;;5057365;28;20918;-85
2021/09/29 04:32:42;;;;;;;355.58;332.45;;;12.00;99.90;;;;;;5039190;28;20203;-85
2021/09/29 04:35:11;;;;;;;348.53;325.43;;;12.00;99.90;;;;;;5039443;28;20187;-85
2021/09/29 04:37:40;;;;;;;377.03;353.27;;;12.00;99.90;;;;;;5056847;28;20467;-85
2021/09/29 04:40:07;;;;;;;455.53;428.77;;;12.00;99.90;;;;;;5057114;28;20403;-85
2021/09/29 04:42:33;;;;;;;494.52;465.33;;;11.90;99.90;;;;;;5039468;28;20407;-85
2021/09/29 04:45:01;;;;;;;543.90;511.30;;;11.80;99.90;;;;;;5039524;28;20165;-85
2021/09/29 04:47:28;;;;;;;542.90;510.73;;;11.90;99.90;;;;;;5039464;28;20212;-85
2021/09/29 04:49:54;;;;;;;545.33;513.63;;;11.80;99.90;;;;;;5038677;28;20458;-85
2021/09/29 04:52:20;;;;;;;508.63;478.60;;;11.80;99.90;;;;;;5039141;28;20171;-85
2021/09/29 04:54:46;;;;;;;517.13;486.67;;;11.90;99.90;;;;;;5056305;28;20188;-84
2021/09/29 04:57:11;;;;;;;523.70;493.20;;;11.80;99.90;;;;;;5038773;28;20434;-85
2021/09/29 04:59:37;;;;;;;562.73;530.77;;;11.80;99.90;;;;;;5056872;28;20164;-85
2021/09/29 05:02:09;;;;;;;559.73;526.87;;;11.80;99.90;;;;;;5038576;28;20196;-85
2021/09/29 05:04:37;;;;;;;572.53;539.33;;;11.80;99.90;;;;;;5056606;28;20183;-85
2021/09/29 05:07:04;;;;;;;545.13;512.73;;;11.80;99.90;;;;;;5056673;28;20434;-85
2021/09/29 05:09:30;;;;;;;547.65;515.95;;;11.80;99.90;;;;;;5057026;28;20410;-85
2021/09/29 05:12:04;;;;;;;539.83;508.40;;;11.80;99.90;;;;;;5056717;28;20219;-85
2021/09/29 05:14:30;;;;;;;513.25;483.20;;;11.80;99.90;;;;;;5039042;28;20263;-85
2021/09/29 05:16:56;;;;;;;579.10;545.60;;;11.80;99.90;;;;;;5056509;28;20224;-85
2021/09/29 05:19:21;;;;;;;548.53;517.17;;;11.80;99.90;;;;;;5057165;28;20901;-85
2021/09/29 05:21:47;;;;;;;554.80;523.40;;;11.70;99.90;;;;;;5056917;28;20192;-85
2021/09/29 05:24:13;;;;;;;559.30;527.20;;;11.70;99.90;;;;;;5056787;28;20168;-85
2021/09/29 05:26:39;;;;;;;596.43;561.23;;;11.80;99.90;;;;;;5057106;28;20423;-85
2021/09/29 05:29:07;;;;;;;554.33;522.37;;;11.80;99.90;;;;;;5057567;28;20172;-85
2021/09/29 05:31:33;;;;;;;578.75;545.50;;;11.80;99.90;;;;;;5039968;28;20176;-85
2021/09/29 05:33:59;;;;;;;535.83;504.85;;;11.80;99.90;;;;;;5060986;28;20172;-85
2021/09/29 05:36:25;;;;;;;554.43;523.23;;;11.90;99.90;;;;;;5061356;28;20165;-85
2021/09/29 05:38:50;;;;;;;546.37;515.03;;;11.90;99.90;;;;;;5044009;28;20179;-85
2021/09/29 05:41:17;;;;;;;563.63;531.33;;;12.00;99.90;;;;;;5060964;28;20188;-85
2021/09/29 05:43:43;;;;;;;546.10;514.17;;;12.00;99.90;;;;;;5061412;28;20410;-85
2021/09/29 05:46:09;;;;;;;538.73;507.67;;;12.00;99.90;;;;;;5043000;28;20620;-85
2021/09/29 05:48:34;;;;;;;538.97;507.37;;;12.00;99.90;;;;;;5060370;28;20177;-85
2021/09/29 05:51:01;;;;;;;535.83;505.90;;;12.10;99.90;;;;;;5060614;28;20771;-87
2021/09/29 05:53:26;;;;;;;532.38;502.00;;;12.10;99.90;;;;;;5060399;28;20171;-86
2021/09/29 05:55:53;;;;;;;538.57;507.63;;;12.20;99.90;;;;;;5060047;28;20189;-86
2021/09/29 05:58:19;;;;;;;495.80;467.27;;;12.30;99.90;;;;;;5059000;28;20180;-86
2021/09/29 06:00:45;;;;;;;500.30;471.43;;;12.30;99.90;;;;;;5059557;28;20188;-86
2021/09/29 06:03:11;;;;;;;520.55;490.90;;;12.40;99.90;;;;;;5058731;28;20404;-85
2021/09/29 06:05:36;;;;;;;550.17;518.43;;;12.40;99.90;;;;;;5040757;28;20160;-86
2021/09/29 06:08:02;;;;;;;547.67;517.20;;;12.50;99.90;;;;;;5041217;28;20434;-86
2021/09/29 06:10:28;;;;;;;545.60;514.00;;;12.50;99.90;;;;;;5041371;28;20194;-86
2021/09/29 06:12:54;;;;;;;518.60;488.63;;;12.50;99.90;;;;;;5059110;28;20983;-86
2021/09/29 06:15:28;;;;;;;503.73;474.20;;;12.50;99.90;;;;;;5059442;28;20165;-86
2021/09/29 06:17:58;;;;;;;479.03;450.77;;;12.50;99.90;;;;;;5059940;28;20177;-85
2021/09/29 06:20:31;;;;;;;485.17;457.10;;;12.50;99.90;;;;;;5041749;28;20806;-85
2021/09/29 06:22:57;;;;;;;524.33;494.23;;;12.50;99.90;;;;;;5042508;28;20449;-85
2021/09/29 06:25:26;;;;;;;526.80;495.98;;;12.60;99.90;;;;;;5059620;28;20399;-85
2021/09/29 06:27:54;;;;;;;513.70;484.52;;;12.60;99.90;;;;;;5041235;28;20193;-85
2021/09/29 06:30:20;;;;;;;470.83;443.75;;;12.50;99.90;;;;;;5059038;28;20165;-86
2021/09/29 06:32:46;;;;;;;487.50;459.30;;;12.40;99.90;;;;;;5059216;28;20718;-86
2021/09/29 06:35:12;;;;;;;521.90;491.80;;;12.40;99.90;;;;;;5041029;28;20198;-86
2021/09/29 06:37:44;;;;;;;478.10;450.87;;;12.40;99.90;;;;;;5059509;28;20274;-86
2021/09/29 06:40:16;;;;;;;464.13;437.70;;;12.40;99.90;;;;;;5058076;28;20387;-84
2021/09/29 06:42:42;;;;;;;408.42;384.70;;;12.40;99.90;;;;;;5038983;28;20403;-85
2021/09/29 06:45:09;;;;;;;443.23;417.87;;;12.40;99.90;;;;;;5057129;28;20164;-85
2021/09/29 06:47:35;;;;;;;429.10;404.30;;;12.40;99.90;;;;;;5039054;28;20514;-85
2021/09/29 06:50:02;;;;;;;402.93;379.03;;;12.40;99.90;;;;;;5039331;28;20403;-86
2021/09/29 06:52:27;;;;;;;375.25;353.10;;;12.40;99.90;;;;;;5057129;28;20394;-86
2021/09/29 06:57:24;;;;;;;383.20;360.90;;;12.30;99.90;;;;;;5045404;28;20691;-83
2021/09/29 06:59:50;;;;;;;346.03;325.00;;;12.30;99.90;;;;;;5058404;28;20395;-82
2021/09/29 07:02:22;;;;;;;369.50;348.17;;;12.40;99.90;;;;;;5057848;28;20567;-83
2021/09/29 07:04:48;;;;;;;363.70;342.87;;;12.40;99.90;;;;;;5057603;28;20145;-82
2021/09/29 07:07:13;;;;;;;363.27;341.83;;;12.40;99.90;;;;;;5039157;28;20798;-83
2021/09/29 07:09:39;;;;;;;325.90;306.43;;;12.40;99.90;;;;;;5057019;28;20165;-82
2021/09/29 07:12:06;;;;;;;343.67;324.23;;;12.60;99.90;;;;;;5057438;28;20168;-83
2021/09/29 07:14:32;;;;;;;342.63;322.23;;;12.50;99.90;;;;;;5038529;28;20415;-83
2021/09/29 07:17:00;;;;;;;316.47;297.20;;;12.60;99.90;;;;;;5038515;28;20478;-82
2021/09/29 07:19:26;;;;;;;322.10;303.30;;;12.60;99.90;;;;;;5038320;28;20788;-82
2021/09/29 07:21:51;;;;;;;373.43;351.73;;;12.70;99.90;;;;;;5055838;28;20447;-82
2021/09/29 07:24:17;;;;;;;333.60;313.67;;;12.70;99.90;;;;;;5037863;28;20434;-82
2021/09/29 07:26:43;;;;;;;322.90;303.13;;;12.70;99.90;;;;;;5056092;28;20458;-82
2021/09/29 07:29:10;;;;;;;336.10;315.13;;;12.80;99.90;;;;;;5038492;28;20168;-83
2021/09/29 07:31:37;;;;;;;357.10;335.90;;;12.70;99.90;;;;;;5038317;28;20170;-81
2021/09/29 07:34:03;;;;;;;344.17;323.50;;;12.70;99.90;;;;;;5056481;28;20453;-82
2021/09/29 07:36:29;;;;;;;360.58;339.67;;;12.70;99.90;;;;;;5055783;28;20494;-82
2021/09/29 07:38:54;;;;;;;363.30;341.40;;;12.70;99.90;;;;;;5055735;28;20640;-81
2021/09/29 07:41:23;;;;;;;383.97;360.17;;;12.80;99.90;;;;;;5055405;28;20443;-81
2021/09/29 07:43:49;;;;;;;358.03;335.93;;;12.70;99.90;;;;;;5055314;28;20531;-81
2021/09/29 07:46:18;;;;;;;394.33;370.63;;;12.70;99.90;;;;;;5055230;28;20482;-81
2021/09/29 07:48:44;;;;;;;383.67;361.07;;;12.70;99.90;;;;;;5037200;28;20218;-81
2021/09/29 07:51:13;;;;;;;419.77;395.70;;;12.60;99.90;;;;;;5037987;28;20419;-81
2021/09/29 07:53:39;;;;;;;417.73;392.93;;;12.60;99.90;;;;;;5054818;28;20383;-81
2021/09/29 07:56:05;;;;;;;452.67;426.30;;;12.60;99.90;;;;;;5036701;28;20917;-81
2021/09/29 07:58:30;;;;;;;445.10;419.53;;;12.60;99.90;;;;;;5054728;28;20426;-82
2021/09/29 08:00:57;;;;;;;467.93;440.77;;;12.60;99.90;;;;;;5055506;28;20803;-82
2021/09/29 08:03:23;;;;;;;474.60;447.73;;;12.70;99.90;;;;;;5037759;28;20171;-82
2021/09/29 08:05:52;;;;;;;452.43;426.40;;;12.70;99.90;;;;;;5038126;28;20446;-81
2021/09/29 08:08:17;;;;;;;473.80;446.30;;;12.80;99.90;;;;;;5037517;28;20184;-82
2021/09/29 08:10:43;;;;;;;452.20;425.97;;;12.70;99.90;;;;;;5055885;28;20403;-81
2021/09/29 08:13:09;;;;;;;477.37;448.43;;;12.80;99.90;;;;;;5037181;28;20263;-81
2021/09/29 08:15:34;;;;;;;427.00;401.97;;;12.80;99.90;;;;;;5037388;28;20178;-82
2021/09/29 08:18:00;;;;;;;446.97;421.37;;;12.90;99.90;;;;;;5055454;28;20207;-82
2021/09/29 08:20:28;;;;;;;472.77;445.90;;;12.90;99.90;;;;;;5055014;28;20223;-83
2021/09/29 08:23:39;;;;;;;464.00;437.03;;;12.90;99.90;;;;;;5037488;28;20165;-82
2021/09/29 08:38:41;;;;;;;443.90;418.67;;;13.30;99.90;;;;;;5055942;28;20427;-83
2021/09/29 08:41:26;;;;;;;411.17;387.70;;;13.40;99.90;;;;;;5037559;28;20523;-82
2021/09/29 08:44:01;;;;;;;417.70;393.60;;;13.50;99.90;;;;;;5037356;28;20445;-83
2021/09/29 08:46:35;;;;;;;434.63;409.90;;;13.60;99.90;;;;;;5037478;28;20936;-82
2021/09/29 08:49:15;;;;;;;450.80;425.27;;;13.90;99.90;;;;;;5037379;28;20390;-83
2021/09/29 09:16:30;;;;;;;406.80;382.73;;;14.80;99.90;;;;;;5059355;28;20374;-83
2021/09/29 09:19:09;;;;;;;390.37;366.80;;;14.80;99.90;;;;;;5041006;28;20403;-82
2021/09/29 09:21:41;;;;;;;317.03;296.33;;;14.80;99.90;;;;;;5041230;28;20860;-82
2021/09/29 09:24:15;;;;;;;318.13;297.83;;;15.00;99.90;;;;;;5041092;28;20934;-83
2021/09/29 09:26:41;;;;;;;328.00;307.57;;;14.90;99.90;;;;;;5058325;28;20423;-83
2021/09/29 09:29:08;;;;;;;300.50;280.70;;;14.90;99.90;;;;;;5058614;28;20416;-82
2021/09/29 09:31:35;;;;;;;295.30;276.33;;;14.90;99.90;;;;;;5058325;28;20174;-83
2021/09/29 09:34:09;;;;;;;265.93;247.83;;;14.80;99.90;;;;;;5040571;28;20468;-82
2021/09/29 09:36:36;;;;;;;312.80;292.20;;;14.80;99.90;;;;;;5058416;28;20392;-83
2021/09/29 09:39:09;;;;;;;324.87;303.80;;;14.70;99.90;;;;;;5058196;28;20419;-82
2021/09/29 09:41:45;;;;;;;396.17;371.13;;;14.60;99.90;;;;;;5040948;28;20850;-81
2021/09/29 09:44:11;;;;;;;322.17;302.20;;;14.50;99.90;;;;;;5039730;28;20406;-79
2021/09/29 09:46:36;;;;;;;352.10;329.67;;;14.10;99.90;;;;;;5057609;28;20754;-79
2021/09/29 09:49:11;;;;;;;335.10;315.07;;;13.80;99.90;;;;;;5057518;28;20176;-79
2021/09/29 09:51:51;;;;;;;326.53;306.73;;;13.60;99.90;;;;;;5039534;28;20174;-78
2021/09/29 09:54:19;;;;;;;318.33;299.17;;;13.50;99.90;;;;;;5057472;28;20392;-79
2021/09/29 09:56:53;;;;;;;314.93;295.80;;;13.40;99.90;;;;;;5039462;28;20458;-79
2021/09/29 09:59:18;;;;;;;276.20;259.03;;;13.50;99.90;;;;;;5058934;28;20469;-80
2021/09/29 10:01:46;;;;;;;296.33;277.83;;;13.50;99.90;;;;;;5040087;28;20914;-79
2021/09/29 10:04:14;;;;;;;403.40;379.37;;;13.70;99.90;;;;;;5058147;28;20410;-80
2021/09/29 10:06:41;;;;;;;427.63;402.30;;;13.90;99.90;;;;;;5039748;28;20427;-80
2021/09/29 10:11:58;;;;;;;342.97;321.83;;;14.50;99.90;;;;;;5058130;28;20387;-80
2021/09/29 10:23:18;;;;;;;161.27;147.37;;;15.00;99.90;;;;;;5038332;28;20460;-80
2021/09/29 10:26:23;;;;;;;145.17;132.57;;;14.90;99.90;;;;;;5057251;28;20436;-80
2021/09/29 10:28:49;;;;;;;213.30;197.83;;;14.90;99.90;;;;;;5039807;28;20403;-80
2021/09/29 10:31:39;;;;;;;229.40;213.63;;;14.90;99.90;;;;;;5056995;28;20486;-80
2021/09/29 10:44:04;;;;;;;245.40;229.40;;;14.90;99.90;;;;;;5057631;28;20442;-80
2021/09/29 10:47:13;;;;;;;231.27;215.77;;;14.80;99.90;;;;;;4987456;28;20411;-81
2021/09/29 11:05:05;;;;;;;278.47;261.37;;;14.70;99.90;;;;;;5057476;28;20445;-82
2021/09/29 11:31:03;;;;;;;152.80;139.80;;;15.90;99.90;;;;;;5056898;28;20395;-82
2021/09/29 12:08:58;;;;;;;77.23;36.60;;;15.50;99.90;;;;;;5057073;28;20387;-83
2021/09/29 12:16:36;;;;;;;87.67;63.40;;;14.50;99.90;;;;;;5057342;28;20406;-83
2021/09/29 12:19:08;;;;;;;146.10;132.70;;;14.30;99.90;;;;;;5040113;28;20410;-83
2021/09/29 12:21:50;;;;;;;149.87;136.70;;;14.20;99.90;;;;;;5058078;28;20444;-83
2021/09/29 12:24:28;;;;;;;120.30;108.70;;;14.20;99.90;;;;;;5058607;28;20390;-83
2021/09/29 12:26:55;;;;;;;191.60;176.90;;;14.30;99.90;;;;;;5040610;28;20481;-84
2021/09/29 12:29:50;;;;;;;165.27;150.93;;;14.30;99.90;;;;;;5040585;28;20411;-83
2021/09/29 12:37:59;;;;;;;84.90;52.77;;;15.20;99.90;;;;;;5058574;28;20427;-84
2021/09/29 12:40:28;;;;;;;76.80;36.40;;;15.40;99.90;;;;;;5039473;28;20490;-84
2021/09/29 12:42:59;;;;;;;86.97;65.17;;;15.50;99.90;;;;;;5039976;28;20413;-84
2021/09/29 12:45:33;;;;;;;79.97;45.87;;;15.60;99.90;;;;;;5056363;28;20405;-83
2021/09/29 12:48:03;;;;;;;81.87;51.67;;;15.60;99.90;;;;;;5057135;28;20507;-83
2021/09/29 12:56:15;;;;;;;83.80;51.77;;;16.10;99.90;;;;;;5122644;23;20491;-86
2021/09/29 12:58:36;;;;;;;77.17;37.40;;;16.10;99.90;;;;;;5052903;28;20422;-87
2021/09/29 13:01:02;;;;;;;94.40;83.97;;;16.20;99.90;;;;;;5053310;28;20497;-87
2021/09/29 13:03:28;;;;;;;124.27;112.90;;;16.20;99.90;;;;;;5035606;28;20411;-86
2021/09/29 13:06:01;;;;;;;114.60;103.50;;;16.20;99.90;;;;;;5054742;28;20492;-86
2021/09/29 13:08:32;;;;;;;95.13;84.77;;;16.20;99.90;;;;;;5035454;28;20245;-87
2021/09/29 13:11:22;;;;;;;123.90;112.40;;;16.20;99.90;;;;;;5035130;28;20445;-87
2021/09/29 13:14:24;;;;;;;;;;;;;;;;;;;;;
2021/09/29 13:17:21;;;;;;;132.77;120.80;;;16.40;99.90;;;;;;5053142;28;20426;-87
2021/09/29 13:20:02;;;;;;;121.93;110.47;;;16.40;99.90;;;;;;5052689;28;20414;-87
2021/09/29 13:22:30;;;;;;;123.83;112.37;;;16.40;99.90;;;;;;5037218;28;20481;-86
2021/09/29 13:25:05;;;;;;;77.00;28.33;;;16.20;99.90;;;;;;5055348;28;20400;-86
2021/09/29 13:36:33;;;;;;;67.53;11.33;;;14.50;96.00;;;;;;5060739;28;20448;-84
2021/09/29 13:38:14;;;;;;;68.10;13.10;;;14.50;99.40;;;;;;5062840;28;20431;-84
2021/09/29 13:40:42;;;;;;;68.77;12.90;;;14.50;99.80;;;;;;5063590;28;20470;-84
2021/09/29 13:43:09;;;;;;;68.10;10.60;;;14.50;99.90;;;;;;5045449;28;20418;-85
2021/09/29 13:45:38;;;;;;;70.30;13.77;;;14.30;96.50;;;;;;5043717;28;20407;-85
2021/09/29 13:48:04;;;;;;;69.60;14.70;;;14.20;97.90;;;;;;5061961;28;20431;-85
2021/09/29 13:50:30;;;;;;;74.30;25.30;;;14.20;99.10;;;;;;5061606;28;20403;-85
2021/09/29 13:52:57;;;;;;;79.30;35.47;;;14.20;99.90;;;;;;5063330;28;20403;-85
2021/09/29 13:55:25;;;;;;;77.90;36.60;;;14.20;99.90;;;;;;5066018;28;20433;-85
2021/09/29 14:01:17;;;;;;;93.93;71.50;;;14.40;99.90;;;;;;5065466;28;20883;-85
2021/09/29 14:30:29;;;;;;;71.50;15.77;;;15.30;97.60;;;;;;5062206;28;20417;-85
2021/09/29 14:33:04;;;;;;;68.80;12.17;;;15.40;99.00;;;;;;5055644;28;20395;-86
2021/09/29 14:35:31;;;;;;;70.43;14.00;;;15.50;97.60;;;;;;5059547;28;20445;-86
2021/09/29 14:38:03;;;;;;;70.00;12.97;;;15.50;98.50;;;;;;5040037;28;20795;-86
2021/09/29 14:40:28;;;;;;;70.57;17.60;;;15.60;97.10;;;;;;5060348;28;20411;-85
2021/09/29 14:42:54;;;;;;;68.80;13.93;;;15.30;99.30;;;;;;5060359;28;20799;-85
2021/09/29 14:45:26;;;;;;;69.77;13.87;;;15.30;99.40;;;;;;5040147;28;20165;-86
2021/09/29 14:47:52;;;;;;;69.77;14.57;;;15.30;96.70;;;;;;5059991;28;20455;-86
2021/09/29 14:50:26;;;;;;;69.20;13.57;;;15.40;98.50;;;;;;5060250;28;20399;-86
2021/09/29 14:52:57;;;;;;;69.10;16.20;;;15.60;98.90;;;;;;5058501;28;20141;-86
2021/09/29 14:55:32;;;;;;;68.53;13.90;;;15.80;94.70;;;;;;5062422;28;20472;-85
2021/09/29 14:57:58;;;;;;;80.20;42.60;;;15.80;95.20;;;;;;5062807;28;20436;-86
2021/09/29 15:00:28;;;;;;;76.67;36.60;;;15.80;87.70;;;;;;5063031;28;20396;-86
2021/09/29 15:02:54;;;;;;;74.47;27.90;;;15.80;91.30;;;;;;5063191;28;20152;-85
2021/09/29 15:05:20;;;;;;;71.77;12.57;;;15.90;92.40;;;;;;5047138;28;20889;-85
2021/09/29 15:07:45;;;;;;;70.57;15.87;;;16.00;94.70;;;;;;5057058;28;20235;-86
2021/09/29 15:10:11;;;;;;;77.47;38.07;;;16.20;95.90;;;;;;5038656;28;20174;-86
2021/09/29 15:12:37;;;;;;;76.80;26.23;;;16.30;89.00;;;;;;5043968;28;20252;-86
2021/09/29 15:15:18;;;;;;;80.40;47.80;;;16.30;79.50;;;;;;5062633;28;20614;-85
2021/09/29 15:17:58;;;;;;;75.90;34.90;;;16.40;88.80;;;;;;5045832;28;20194;-85
2021/09/29 15:29:03;;;;;;;79.47;45.53;;;15.90;90.20;;;;;;5060963;28;20196;-85
2021/09/29 15:54:57;;;;;;;70.90;17.23;;;15.50;95.70;;;;;;5057725;28;20918;-85
2021/09/29 16:00:11;;;;;;;69.17;16.40;;;15.90;95.40;;;;;;5057441;28;20411;-85
2021/09/29 16:02:47;;;;;;;68.90;15.77;;;16.20;94.20;;;;;;5057944;28;20384;-85
2021/09/29 16:08:11;;;;;;;69.03;14.27;;;16.40;93.10;;;;;;5058468;28;20429;-85
2021/09/29 16:31:56;;;;;;;71.67;21.50;;;15.60;99.90;;;;;;5060335;28;20411;-85
2021/09/29 16:34:23;;;;;;;74.83;28.83;;;15.30;99.90;;;;;;5060564;28;20775;-85
2021/09/29 16:36:54;;;;;;;78.50;28.67;;;15.10;99.90;;;;;;5043535;28;20436;-85